createdAt,value
2018-12-06T00:00:07.849Z,10.60
2018-12-06T00:02:36.042Z,10.10
2018-12-06T00:05:04.996Z,10.50
2018-12-06T00:07:33.168Z,11.53
2018-12-06T00:10:01.473Z,10.30
2018-12-06T00:12:29.646Z,11.13
2018-12-06T00:18:33.199Z,8.37
2018-12-06T00:21:01.387Z,9.63
2018-12-06T00:23:29.559Z,8.10
2018-12-06T00:25:57.744Z,8.60
2018-12-06T00:28:25.950Z,9.70
2018-12-06T00:30:54.112Z,8.33
2018-12-06T00:33:22.388Z,8.17
2018-12-06T00:35:50.621Z,8.87
2018-12-06T00:38:18.786Z,9.37
2018-12-06T00:40:46.953Z,8.23
2018-12-06T00:43:15.148Z,9.13
2018-12-06T00:45:43.352Z,7.20
2018-12-06T00:48:11.672Z,8.70
2018-12-06T00:50:39.876Z,8.33
2018-12-06T00:53:08.047Z,7.83
2018-12-06T00:55:36.256Z,7.83
2018-12-06T00:58:04.445Z,8.50
2018-12-06T01:00:32.686Z,9.23
2018-12-06T01:03:01.059Z,8.90
2018-12-06T01:05:29.264Z,9.20
2018-12-06T01:07:57.469Z,7.97
2018-12-06T01:10:25.749Z,7.93
2018-12-06T01:12:53.931Z,7.53
2018-12-06T01:15:22.099Z,8.63
2018-12-06T01:17:50.288Z,8.10
2018-12-06T01:20:18.504Z,8.73
2018-12-06T01:22:46.701Z,8.50
2018-12-06T01:25:14.875Z,7.80
2018-12-06T01:27:43.130Z,7.93
2018-12-06T01:30:11.297Z,7.00
2018-12-06T01:32:39.476Z,8.07
2018-12-06T01:35:07.678Z,7.47
2018-12-06T01:37:35.854Z,7.60
2018-12-06T01:40:04.155Z,8.17
2018-12-06T01:42:32.335Z,8.07
2018-12-06T01:45:00.529Z,7.80
2018-12-06T01:47:28.705Z,8.70
2018-12-06T01:49:56.923Z,7.93
2018-12-06T01:52:25.117Z,8.07
2018-12-06T01:54:53.406Z,7.50
2018-12-06T01:57:21.759Z,8.00
2018-12-06T01:59:49.932Z,8.93
2018-12-06T02:02:18.104Z,7.60
2018-12-06T02:04:46.338Z,8.10
2018-12-06T02:07:14.513Z,8.33
2018-12-06T02:09:42.703Z,7.93
2018-12-06T02:12:11.242Z,6.80
2018-12-06T02:14:39.409Z,7.80
2018-12-06T02:17:07.581Z,9.80
2018-12-06T02:19:35.780Z,8.47
2018-12-06T02:22:03.975Z,7.30
2018-12-06T02:24:32.154Z,7.77
2018-12-06T02:27:00.359Z,8.17
2018-12-06T02:29:30.554Z,7.43
2018-12-06T02:31:58.737Z,7.30
2018-12-06T02:34:26.947Z,7.63
2018-12-06T02:36:55.134Z,7.20
2018-12-06T02:39:23.304Z,7.93
2018-12-06T02:41:51.618Z,7.13
2018-12-06T02:44:19.817Z,7.60
2018-12-06T02:46:47.998Z,7.23
2018-12-06T02:49:16.197Z,6.60
2018-12-06T02:51:44.425Z,6.27
2018-12-06T02:54:12.840Z,6.97
2018-12-06T02:56:41.131Z,7.10
2018-12-06T02:59:09.307Z,7.60
2018-12-06T03:01:37.479Z,6.20
2018-12-06T03:04:05.676Z,6.90
2018-12-06T03:06:33.969Z,7.50
2018-12-06T03:09:02.157Z,6.80
2018-12-06T03:11:30.383Z,6.80
2018-12-06T03:13:58.680Z,6.80
2018-12-06T03:16:26.862Z,6.60
2018-12-06T03:18:55.056Z,6.77
2018-12-06T03:21:23.258Z,8.23
2018-12-06T03:23:51.436Z,7.00
2018-12-06T03:26:19.630Z,6.70
2018-12-06T03:28:47.821Z,6.70
2018-12-06T03:31:15.995Z,6.27
2018-12-06T03:33:44.192Z,7.30
2018-12-06T03:36:12.694Z,8.40
2018-12-06T03:38:40.867Z,7.83
2018-12-06T03:41:09.100Z,7.40
2018-12-06T03:43:37.277Z,7.47
2018-12-06T03:46:05.463Z,7.60
2018-12-06T03:48:33.674Z,7.23
2018-12-06T03:51:01.849Z,7.10
2018-12-06T03:53:30.036Z,6.37
2018-12-06T03:55:58.445Z,6.30
2018-12-06T03:58:26.602Z,7.20
2018-12-06T04:00:54.788Z,6.00
2018-12-06T04:03:23.288Z,7.00
2018-12-06T04:05:51.463Z,7.00
2018-12-06T04:08:19.634Z,7.80
2018-12-06T04:10:47.849Z,7.57
2018-12-06T04:13:16.041Z,6.87
2018-12-06T04:15:44.218Z,7.10
2018-12-06T04:18:12.425Z,7.43
2018-12-06T04:20:40.632Z,7.20
2018-12-06T04:23:08.809Z,6.80
2018-12-06T04:25:37.017Z,6.90
2018-12-06T04:28:05.199Z,7.43
2018-12-06T04:30:33.369Z,7.20
2018-12-06T04:33:01.608Z,6.43
2018-12-06T04:35:29.789Z,6.53
2018-12-06T04:37:57.955Z,8.17
2018-12-06T04:40:26.174Z,7.33
2018-12-06T04:42:54.373Z,9.10
2018-12-06T04:45:22.561Z,11.50
2018-12-06T04:47:50.904Z,7.07
2018-12-06T04:50:19.211Z,7.97
2018-12-06T04:52:47.389Z,8.63
2018-12-06T04:55:15.593Z,8.17
2018-12-06T04:57:43.774Z,7.63
2018-12-06T05:00:12.212Z,8.93
2018-12-06T05:02:40.419Z,8.20
2018-12-06T05:05:08.612Z,7.93
2018-12-06T05:07:36.815Z,7.40
2018-12-06T05:10:05.829Z,7.57
2018-12-06T05:12:34.023Z,7.90
2018-12-06T05:15:02.225Z,9.50
2018-12-06T05:17:30.553Z,7.87
2018-12-06T05:19:58.843Z,7.43
2018-12-06T05:22:27.089Z,6.60
2018-12-06T05:24:55.273Z,6.50
2018-12-06T05:27:23.435Z,6.00
2018-12-06T05:29:51.731Z,6.30
2018-12-06T05:32:19.951Z,7.20
2018-12-06T05:34:48.159Z,7.10
2018-12-06T05:37:16.338Z,6.63
2018-12-06T05:39:44.613Z,7.43
2018-12-06T05:42:12.789Z,7.70
2018-12-06T05:44:40.972Z,7.80
2018-12-06T05:47:09.174Z,10.60
2018-12-06T05:49:37.362Z,8.10
2018-12-06T05:52:05.545Z,11.70
2018-12-06T05:54:33.756Z,10.90
2018-12-06T05:57:01.937Z,9.50
2018-12-06T05:59:30.164Z,8.80
2018-12-06T06:01:58.376Z,10.77
2018-12-06T06:04:26.585Z,9.20
2018-12-06T06:06:56.832Z,11.30
2018-12-06T06:09:25.676Z,9.33
2018-12-06T06:11:54.030Z,10.20
2018-12-06T06:14:22.217Z,8.23
2018-12-06T06:16:50.421Z,10.60
2018-12-06T06:19:18.599Z,10.80
2018-12-06T06:21:46.771Z,9.50
2018-12-06T06:24:15.118Z,10.33
2018-12-06T06:26:43.309Z,10.47
2018-12-06T06:29:12.191Z,11.67
2018-12-06T06:31:40.374Z,9.27
2018-12-06T06:34:08.560Z,9.70
2018-12-06T06:36:36.723Z,11.20
2018-12-06T06:39:06.285Z,9.73
2018-12-06T06:41:34.461Z,9.40
2018-12-06T06:44:02.676Z,8.90
2018-12-06T06:46:30.888Z,8.50
2018-12-06T06:48:59.063Z,9.13
2018-12-06T06:51:27.236Z,7.97
2018-12-06T06:53:55.420Z,9.23
2018-12-06T06:56:23.598Z,8.60
2018-12-06T06:58:51.768Z,8.70
2018-12-06T07:01:19.969Z,8.53
2018-12-06T07:03:48.144Z,9.00
2018-12-06T07:06:16.511Z,8.03
2018-12-06T07:08:44.725Z,9.53
2018-12-06T07:11:12.901Z,9.20
2018-12-06T07:13:41.079Z,9.00
2018-12-06T07:16:09.280Z,9.97
2018-12-06T07:18:37.448Z,9.10
2018-12-06T07:21:05.627Z,10.17
2018-12-06T07:23:33.831Z,9.00
2018-12-06T07:26:02.013Z,9.77
2018-12-06T07:28:30.190Z,8.67
2018-12-06T07:30:58.415Z,9.67
2018-12-06T07:33:26.587Z,8.87
2018-12-06T07:35:54.771Z,8.93
2018-12-06T07:38:22.983Z,9.90
2018-12-06T07:40:51.670Z,9.60
2018-12-06T07:43:19.857Z,9.63
2018-12-06T07:45:48.057Z,10.10
2018-12-06T07:48:16.415Z,9.73
2018-12-06T07:50:44.580Z,9.60
2018-12-06T07:53:12.808Z,9.60
2018-12-06T07:55:40.988Z,9.30
2018-12-06T07:58:09.176Z,10.00
2018-12-06T08:00:37.389Z,9.20
2018-12-06T08:03:05.711Z,9.90
2018-12-06T08:05:33.889Z,9.90
2018-12-06T08:08:02.110Z,10.10
2018-12-06T08:10:30.302Z,10.70
2018-12-06T08:12:58.609Z,10.30
2018-12-06T08:15:26.816Z,10.30
2018-12-06T08:17:58.029Z,10.93
2018-12-06T08:20:26.194Z,9.60
2018-12-06T08:22:54.392Z,10.30
2018-12-06T08:25:22.577Z,9.93
2018-12-06T08:27:50.753Z,10.10
2018-12-06T08:30:19.108Z,9.60
2018-12-06T08:32:47.491Z,10.77
2018-12-06T08:35:15.669Z,11.70
2018-12-06T08:37:43.878Z,11.20
2018-12-06T08:40:12.059Z,10.50
2018-12-06T08:42:45.751Z,11.17
2018-12-06T08:45:10.590Z,10.00
2018-12-06T08:47:38.885Z,11.90
2018-12-06T08:50:07.060Z,10.20
2018-12-06T08:52:35.274Z,9.90
2018-12-06T08:55:03.445Z,10.00
2018-12-06T08:57:31.797Z,10.43
2018-12-06T09:00:00.090Z,9.73
2018-12-06T09:02:28.260Z,10.77
2018-12-06T09:04:56.428Z,10.70
2018-12-06T09:07:24.772Z,9.90
2018-12-06T09:09:53.013Z,10.23
2018-12-06T09:12:21.208Z,11.60
2018-12-06T09:14:49.400Z,11.03
2018-12-06T09:17:17.590Z,10.77
2018-12-06T09:19:45.764Z,10.87
2018-12-06T09:22:13.959Z,10.70
2018-12-06T09:24:42.136Z,14.43
2018-12-06T09:27:10.315Z,13.00
2018-12-06T09:29:38.599Z,12.10
2018-12-06T09:32:06.770Z,11.43
2018-12-06T09:34:35.087Z,12.20
2018-12-06T09:37:03.314Z,9.30
2018-12-06T09:39:31.525Z,11.77
2018-12-06T09:41:59.706Z,9.63
2018-12-06T09:44:27.915Z,11.77
2018-12-06T09:46:56.095Z,10.43
2018-12-06T09:49:24.345Z,9.30
2018-12-06T09:51:52.645Z,11.20
2018-12-06T09:54:20.924Z,11.17
2018-12-06T09:56:49.204Z,9.50
2018-12-06T09:59:17.403Z,11.23
2018-12-06T10:01:45.565Z,9.80
2018-12-06T10:04:13.762Z,9.87
2018-12-06T10:06:42.544Z,10.77
2018-12-06T10:09:10.730Z,10.63
2018-12-06T10:11:38.904Z,9.40
2018-12-06T10:14:07.136Z,10.27
2018-12-06T10:16:35.312Z,10.90
2018-12-06T10:19:03.482Z,9.93
2018-12-06T10:21:37.535Z,11.20
2018-12-06T10:24:05.706Z,10.60
2018-12-06T10:26:33.886Z,13.00
2018-12-06T10:29:02.113Z,11.70
2018-12-06T10:31:30.292Z,13.00
2018-12-06T10:33:58.672Z,13.67
2018-12-06T10:36:26.885Z,12.83
2018-12-06T10:38:55.064Z,14.23
2018-12-06T10:41:23.256Z,13.67
2018-12-06T10:43:51.459Z,15.00
2018-12-06T10:46:21.795Z,14.07
2018-12-06T10:48:50.001Z,14.83
2018-12-06T10:51:42.069Z,14.30
2018-12-06T10:54:10.387Z,14.13
2018-12-06T10:56:38.584Z,13.57
2018-12-06T10:59:07.014Z,13.37
2018-12-06T11:04:41.053Z,13.80
2018-12-06T11:07:09.225Z,14.20
2018-12-06T11:09:37.396Z,12.60
2018-12-06T11:12:06.313Z,14.57
2018-12-06T11:14:34.503Z,14.10
2018-12-06T11:17:02.824Z,13.70
2018-12-06T11:19:31.036Z,14.37
2018-12-06T11:21:59.334Z,14.30
2018-12-06T11:24:27.509Z,14.03
2018-12-06T11:26:55.725Z,14.07
2018-12-06T11:29:24.068Z,14.40
2018-12-06T11:31:52.261Z,15.70
2018-12-06T11:34:20.472Z,14.37
2018-12-06T11:36:48.656Z,16.07
2018-12-06T11:39:16.829Z,14.70
2018-12-06T11:41:45.125Z,15.77
2018-12-06T11:44:13.432Z,16.87
2018-12-06T11:46:41.786Z,14.73
2018-12-06T11:49:10.408Z,15.03
2018-12-06T11:51:38.587Z,13.80
2018-12-06T11:54:06.795Z,13.63
2018-12-06T11:56:35.885Z,15.93
2018-12-06T11:59:04.339Z,16.07
2018-12-06T12:01:32.776Z,14.13
2018-12-06T12:04:01.147Z,16.03
2018-12-06T12:06:29.464Z,15.77
2018-12-06T12:08:58.025Z,13.27
2018-12-06T12:11:26.399Z,14.03
2018-12-06T12:13:54.733Z,15.07
2018-12-06T12:16:23.243Z,14.90
2018-12-06T12:18:52.028Z,14.23
2018-12-06T12:21:20.199Z,15.40
2018-12-06T12:23:48.371Z,13.93
2018-12-06T12:26:16.583Z,14.40
2018-12-06T12:28:44.758Z,14.27
2018-12-06T12:31:12.941Z,15.23
2018-12-06T12:33:41.142Z,16.97
2018-12-06T12:36:09.360Z,16.70
2018-12-06T12:38:37.548Z,13.97
2018-12-06T12:41:05.741Z,16.10
2018-12-06T12:43:33.917Z,14.97
2018-12-06T12:46:02.174Z,15.20
2018-12-06T12:48:30.429Z,14.70
2018-12-06T12:50:58.610Z,14.80
2018-12-06T12:53:27.242Z,15.77
2018-12-06T12:55:55.450Z,16.80
2018-12-06T12:58:25.197Z,14.80
2018-12-06T13:00:53.803Z,15.07
2018-12-06T13:03:22.125Z,16.10
2018-12-06T13:05:50.315Z,15.57
2018-12-06T13:08:18.621Z,16.60
2018-12-06T13:10:46.859Z,15.80
2018-12-06T13:13:15.036Z,17.10
2018-12-06T13:15:43.251Z,14.73
2018-12-06T13:18:11.454Z,15.87
2018-12-06T13:20:39.801Z,16.33
2018-12-06T13:23:08.004Z,15.87
2018-12-06T13:25:36.202Z,15.93
2018-12-06T13:28:04.377Z,15.60
2018-12-06T13:30:32.554Z,17.00
2018-12-06T13:33:00.899Z,16.90
2018-12-06T13:35:29.166Z,17.40
2018-12-06T13:37:57.383Z,15.87
2018-12-06T13:40:25.592Z,15.70
2018-12-06T13:42:53.855Z,17.37
2018-12-06T13:45:22.050Z,15.37
2018-12-06T13:47:50.339Z,18.57
2018-12-06T13:50:18.734Z,16.97
2018-12-06T13:52:46.916Z,15.63
2018-12-06T13:55:15.119Z,18.07
2018-12-06T13:57:43.285Z,17.30
2018-12-06T14:00:11.588Z,17.27
2018-12-06T14:02:39.790Z,19.40
2018-12-06T14:05:07.988Z,17.10
2018-12-06T14:07:36.170Z,16.37
2018-12-06T14:10:04.702Z,16.93
2018-12-06T14:12:32.880Z,16.90
2018-12-06T14:15:01.068Z,17.03
2018-12-06T14:17:29.274Z,17.60
2018-12-06T14:19:57.578Z,15.57
2018-12-06T14:22:25.874Z,16.73
2018-12-06T14:24:54.149Z,17.20
2018-12-06T14:27:22.321Z,19.87
2018-12-06T14:29:50.502Z,19.37
2018-12-06T14:32:18.772Z,16.53
2018-12-06T14:34:47.071Z,17.73
2018-12-06T14:37:15.329Z,17.73
2018-12-06T14:39:43.607Z,16.70
2018-12-06T14:42:11.937Z,16.37
2018-12-06T14:44:40.118Z,20.87
2018-12-06T14:47:08.320Z,19.17
2018-12-06T14:49:36.503Z,19.70
2018-12-06T14:52:04.682Z,19.73
2018-12-06T14:54:32.874Z,18.97
2018-12-06T14:57:01.045Z,19.07
2018-12-06T14:59:29.222Z,17.93
2018-12-06T15:01:57.409Z,18.40
2018-12-06T15:04:25.570Z,18.50
2018-12-06T15:06:53.734Z,18.00
2018-12-06T15:09:21.926Z,19.33
2018-12-06T15:11:50.102Z,17.90
2018-12-06T15:14:18.270Z,17.90
2018-12-06T15:16:46.474Z,19.90
2018-12-06T15:19:14.705Z,18.90
2018-12-06T15:21:42.930Z,18.40
2018-12-06T15:24:11.134Z,19.47
2018-12-06T15:26:39.433Z,20.07
2018-12-06T15:29:07.599Z,20.30
2018-12-06T15:31:35.795Z,18.73
2018-12-06T15:34:03.977Z,17.70
2018-12-06T15:36:32.145Z,19.23
2018-12-06T15:39:00.345Z,19.23
2018-12-06T15:41:28.516Z,20.20
2018-12-06T15:43:56.749Z,18.50
2018-12-06T15:46:24.941Z,19.90
2018-12-06T15:48:53.115Z,19.73
2018-12-06T15:51:21.291Z,19.10
2018-12-06T15:53:49.491Z,21.07
2018-12-06T15:56:17.656Z,20.50
2018-12-06T15:58:45.825Z,21.77
2018-12-06T16:01:14.029Z,21.30
2018-12-06T16:03:42.215Z,22.07
2018-12-06T16:06:10.509Z,21.70
2018-12-06T16:08:38.733Z,20.60
2018-12-06T16:11:07.014Z,21.93
2018-12-06T16:13:35.333Z,21.80
2018-12-06T16:16:03.546Z,22.17
2018-12-06T16:18:31.718Z,24.00
2018-12-06T16:20:59.909Z,20.17
2018-12-06T16:23:28.132Z,20.37
2018-12-06T16:25:56.300Z,23.00
2018-12-06T16:28:24.483Z,22.03
2018-12-06T16:30:52.776Z,22.30
2018-12-06T16:33:20.955Z,21.27
2018-12-06T16:35:49.122Z,21.23
2018-12-06T16:38:17.333Z,22.90
2018-12-06T16:40:45.492Z,19.77
2018-12-06T16:43:13.663Z,20.47
2018-12-06T16:45:41.980Z,20.80
2018-12-06T16:48:10.150Z,21.83
2018-12-06T16:50:38.359Z,20.87
2018-12-06T16:53:06.551Z,20.97
2018-12-06T16:55:34.846Z,23.20
2018-12-06T16:58:03.039Z,23.97
2018-12-06T17:00:31.591Z,22.57
2018-12-06T17:02:59.792Z,22.33
2018-12-06T17:05:28.344Z,21.97
2018-12-06T17:07:57.124Z,22.47
2018-12-06T17:10:25.735Z,21.80
2018-12-06T17:12:53.967Z,22.17
2018-12-06T17:15:22.180Z,22.83
2018-12-06T17:17:50.378Z,21.80
2018-12-06T17:20:18.566Z,32.00
2018-12-06T17:22:46.760Z,24.97
2018-12-06T17:25:14.936Z,25.00
2018-12-06T17:27:43.256Z,29.20
2018-12-06T17:30:11.800Z,23.40
2018-12-06T17:32:40.104Z,22.03
2018-12-06T17:35:08.298Z,20.60
2018-12-06T17:37:36.487Z,18.30
2018-12-06T17:40:04.792Z,21.63
2018-12-06T17:42:33.458Z,22.10
2018-12-06T17:45:01.710Z,22.10
2018-12-06T17:47:30.588Z,20.77
2018-12-06T17:49:58.815Z,22.50
2018-12-06T17:52:27.245Z,19.73
2018-12-06T17:54:55.522Z,21.53
2018-12-06T17:57:24.021Z,22.67
2018-12-06T17:59:52.318Z,22.13
2018-12-06T18:02:20.490Z,20.87
2018-12-06T18:04:48.819Z,20.97
2018-12-06T18:07:17.037Z,23.83
2018-12-06T18:09:45.209Z,22.93
2018-12-06T18:12:13.384Z,23.37
2018-12-06T18:14:41.592Z,22.43
2018-12-06T18:17:09.785Z,22.73
2018-12-06T18:19:37.968Z,22.80
2018-12-06T18:22:06.191Z,23.83
2018-12-06T18:24:34.470Z,21.57
2018-12-06T18:27:02.765Z,22.30
2018-12-06T18:29:30.990Z,21.97
2018-12-06T18:31:59.192Z,21.70
2018-12-06T18:34:27.377Z,23.07
2018-12-06T18:36:55.590Z,25.13
2018-12-06T18:39:23.761Z,24.83
2018-12-06T18:41:51.980Z,37.50
2018-12-06T18:44:20.313Z,45.67
2018-12-06T18:46:48.620Z,38.87
2018-12-06T18:49:16.811Z,38.97
2018-12-06T18:51:45.144Z,36.53
2018-12-06T18:54:13.909Z,36.47
2018-12-06T18:56:42.138Z,33.80
2018-12-06T18:59:11.022Z,30.60
2018-12-06T19:01:39.633Z,28.10
2018-12-06T19:04:07.862Z,28.17
2018-12-06T19:06:41.274Z,27.00
2018-12-06T19:09:09.465Z,24.73
2018-12-06T19:11:37.666Z,26.83
2018-12-06T19:14:06.041Z,26.90
2018-12-06T19:16:34.341Z,24.33
2018-12-06T19:19:02.527Z,24.90
2018-12-06T19:21:35.106Z,25.50
2018-12-06T19:24:03.928Z,24.33
2018-12-06T19:26:32.226Z,23.67
2018-12-06T19:29:00.438Z,24.03
2018-12-06T19:31:29.302Z,26.10
2018-12-06T19:33:57.855Z,24.47
2018-12-06T19:36:26.053Z,24.37
2018-12-06T19:38:54.236Z,25.20
2018-12-06T19:41:22.999Z,29.80
2018-12-06T19:43:51.242Z,40.20
2018-12-06T19:46:19.893Z,31.93
2018-12-06T19:48:48.138Z,29.80
2018-12-06T19:51:16.313Z,32.33
2018-12-06T19:53:45.201Z,41.30
2018-12-06T19:56:13.477Z,31.90
2018-12-06T19:58:41.675Z,28.10
2018-12-06T20:01:09.885Z,26.40
2018-12-06T20:03:38.610Z,26.20
2018-12-06T20:06:06.870Z,26.43
2018-12-06T20:08:35.233Z,27.27
2018-12-06T20:11:04.256Z,24.20
2018-12-06T20:13:32.610Z,27.27
2018-12-06T20:16:00.790Z,25.10
2018-12-06T20:18:29.701Z,25.90
2018-12-06T20:20:57.949Z,26.83
2018-12-06T20:23:26.162Z,25.70
2018-12-06T20:25:55.047Z,25.93
2018-12-06T20:28:26.618Z,25.17
2018-12-06T20:30:54.360Z,28.70
2018-12-06T20:33:22.747Z,28.67
2018-12-06T20:35:50.948Z,29.00
2018-12-06T20:38:19.136Z,40.17
2018-12-06T20:40:47.369Z,29.13
2018-12-06T20:43:15.543Z,28.10
2018-12-06T20:45:43.745Z,27.50
2018-12-06T20:48:11.993Z,26.97
2018-12-06T20:50:40.294Z,28.27
2018-12-06T20:53:08.622Z,29.30
2018-12-06T20:55:36.932Z,28.13
2018-12-06T20:58:05.145Z,30.37
2018-12-06T21:00:33.426Z,28.23
2018-12-06T21:03:01.656Z,28.43
2018-12-06T21:05:29.930Z,29.43
2018-12-06T21:07:58.123Z,29.70
2018-12-06T21:10:26.477Z,29.40
2018-12-06T21:12:54.691Z,29.30
2018-12-06T21:15:22.891Z,28.40
2018-12-06T21:17:51.123Z,28.40
2018-12-06T21:20:19.316Z,28.10
2018-12-06T21:22:47.507Z,28.57
2018-12-06T21:25:15.837Z,27.27
2018-12-06T21:27:44.013Z,28.43
2018-12-06T21:30:12.362Z,26.97
2018-12-06T21:32:40.580Z,28.57
2018-12-06T21:35:08.918Z,27.47
2018-12-06T21:37:38.122Z,26.47
2018-12-06T21:40:06.909Z,27.33
2018-12-06T21:42:35.105Z,27.70
2018-12-06T21:45:03.478Z,26.33
2018-12-06T21:47:31.707Z,42.70
2018-12-06T21:49:59.911Z,29.73
2018-12-06T21:52:28.106Z,31.03
2018-12-06T21:54:56.350Z,29.33
2018-12-06T21:57:24.538Z,26.03
2018-12-06T21:59:52.737Z,27.60
2018-12-06T22:02:24.955Z,27.23
2018-12-06T22:04:53.294Z,30.30
2018-12-06T22:07:21.499Z,29.67
2018-12-06T22:09:49.938Z,29.90
2018-12-06T22:12:18.150Z,25.87
2018-12-06T22:14:46.361Z,25.03
2018-12-06T22:17:14.620Z,28.93
2018-12-06T22:19:42.789Z,27.80
2018-12-06T22:22:10.990Z,25.67
2018-12-06T22:24:39.232Z,29.90
2018-12-06T22:27:07.580Z,28.23
2018-12-06T22:29:35.854Z,27.50
2018-12-06T22:32:04.096Z,32.87
2018-12-06T22:34:32.335Z,24.67
2018-12-06T22:37:00.590Z,25.70
2018-12-06T22:39:28.881Z,29.43
2018-12-06T22:41:57.181Z,32.13
2018-12-06T22:44:25.476Z,30.80
2018-12-06T22:46:53.735Z,25.27
2018-12-06T22:49:22.053Z,25.83
2018-12-06T22:51:50.239Z,24.10
2018-12-06T22:54:18.454Z,25.20
2018-12-06T22:56:46.776Z,25.03
2018-12-06T22:59:15.067Z,25.67
2018-12-06T23:01:43.531Z,24.10
2018-12-06T23:04:11.816Z,25.57
2018-12-06T23:06:39.997Z,24.80
2018-12-06T23:09:08.199Z,27.80
2018-12-06T23:11:36.466Z,25.90
2018-12-06T23:14:04.689Z,25.17
2018-12-06T23:16:32.913Z,26.47
2018-12-06T23:19:01.105Z,26.77
2018-12-06T23:21:29.290Z,25.63
2018-12-06T23:23:57.513Z,25.73
2018-12-06T23:26:25.697Z,26.80
2018-12-06T23:28:53.970Z,25.50
2018-12-06T23:31:22.191Z,24.90
2018-12-06T23:33:50.370Z,24.47
2018-12-06T23:36:18.595Z,25.53
2018-12-06T23:38:46.806Z,27.57
2018-12-06T23:41:14.992Z,26.43
2018-12-06T23:43:43.197Z,26.83
2018-12-06T23:46:11.414Z,26.40
2018-12-06T23:48:39.623Z,26.90
2018-12-06T23:51:25.780Z,26.70
2018-12-06T23:53:53.958Z,27.60
2018-12-06T23:56:22.129Z,27.87
2018-12-06T23:58:50.343Z,26.93
